createdAt,value
2022-12-20T00:01:35.579Z,18.20
2022-12-20T00:04:07.904Z,14.70
2022-12-20T00:06:36.533Z,19.85
2022-12-20T00:09:06.753Z,19.90
2022-12-20T00:11:34.695Z,18.60
2022-12-20T00:14:02.332Z,23.98
2022-12-20T00:16:30.067Z,19.70
2022-12-20T00:19:00.221Z,14.32
2022-12-20T00:21:28.799Z,13.23
2022-12-20T00:23:57.208Z,20.35
2022-12-20T00:26:27.122Z,19.70
2022-12-20T00:28:54.735Z,21.00
2022-12-20T00:31:23.764Z,17.25
2022-12-20T00:33:53.266Z,22.20
2022-12-20T00:36:22.121Z,15.35
2022-12-20T00:38:52.113Z,19.20
2022-12-20T00:41:22.948Z,13.50
2022-12-20T00:43:52.435Z,16.08
2022-12-20T00:46:23.361Z,13.52
2022-12-20T00:51:21.889Z,15.55
2022-12-20T00:53:49.583Z,9.95
2022-12-20T00:56:18.548Z,12.57
2022-12-20T00:58:46.425Z,13.65
2022-12-20T01:01:23.373Z,12.85
2022-12-20T01:03:52.526Z,13.27
2022-12-20T01:06:21.466Z,12.27
2022-12-20T01:08:48.946Z,10.75
2022-12-20T01:11:22.426Z,15.13
2022-12-20T01:13:52.704Z,11.95
2022-12-20T01:16:30.131Z,13.67
2022-12-20T01:18:58.039Z,12.60
2022-12-20T01:21:27.442Z,13.63
2022-12-20T01:23:55.449Z,16.27
2022-12-20T01:26:25.373Z,16.05
2022-12-20T01:28:55.785Z,14.68
2022-12-20T01:31:24.472Z,13.75
2022-12-20T01:33:52.872Z,10.27
2022-12-20T01:36:26.450Z,15.73
2022-12-20T01:39:08.339Z,14.32
2022-12-20T01:41:37.009Z,12.32
2022-12-20T01:44:06.616Z,15.70
2022-12-20T01:46:36.424Z,15.45
2022-12-20T01:49:07.098Z,13.75
2022-12-20T01:51:40.147Z,15.10
2022-12-20T01:54:13.612Z,23.23
2022-12-20T01:56:45.997Z,16.33
2022-12-20T01:59:14.542Z,17.23
2022-12-20T02:01:44.008Z,18.60
2022-12-20T02:04:12.462Z,16.70
2022-12-20T02:06:40.009Z,18.60
2022-12-20T02:09:09.025Z,17.70
2022-12-20T02:12:09.051Z,22.15
2022-12-20T02:17:44.224Z,14.98
2022-12-20T02:20:55.444Z,16.48
2022-12-20T02:26:29.973Z,15.05
2022-12-20T02:29:19.676Z,9.95
2022-12-20T02:32:28.364Z,15.80
2022-12-20T02:34:57.388Z,13.05
2022-12-20T02:37:25.710Z,8.98
2022-12-20T02:39:54.013Z,10.93
2022-12-20T02:42:25.696Z,11.63
2022-12-20T02:45:17.127Z,14.25
2022-12-20T02:47:55.747Z,13.75
2022-12-20T02:50:52.724Z,13.82
2022-12-20T02:53:22.447Z,9.07
2022-12-20T02:56:14.089Z,9.23
2022-12-20T02:58:59.715Z,8.05
2022-12-20T03:01:36.217Z,12.65
2022-12-20T03:04:04.973Z,16.58
2022-12-20T03:06:32.531Z,9.80
2022-12-20T03:09:00.111Z,19.40
2022-12-20T03:11:30.541Z,15.63
2022-12-20T03:13:58.162Z,19.08
2022-12-20T03:16:25.703Z,18.27
2022-12-20T03:18:53.717Z,18.45
2022-12-20T03:21:21.153Z,14.05
2022-12-20T03:23:48.588Z,20.30
2022-12-20T03:26:16.075Z,18.27
2022-12-20T03:28:48.370Z,16.08
2022-12-20T03:31:20.390Z,19.48
2022-12-20T03:33:52.612Z,20.77
2022-12-20T03:36:23.635Z,13.82
2022-12-20T03:38:56.063Z,12.85
2022-12-20T03:41:26.411Z,19.83
2022-12-20T03:43:54.361Z,16.38
2022-12-20T03:46:23.418Z,14.88
2022-12-20T03:48:51.359Z,21.10
2022-12-20T03:51:19.411Z,22.98
2022-12-20T03:53:46.898Z,22.30
2022-12-20T03:56:15.558Z,22.33
2022-12-20T03:58:44.250Z,20.30
2022-12-20T04:01:20.162Z,22.23
2022-12-20T04:03:48.629Z,21.02
2022-12-20T04:06:16.399Z,15.02
2022-12-20T04:08:44.172Z,22.85
2022-12-20T04:11:17.067Z,18.45
2022-12-20T04:14:05.165Z,15.80
2022-12-20T04:16:34.391Z,24.73
2022-12-20T04:19:02.815Z,21.58
2022-12-20T04:21:36.427Z,20.55
2022-12-20T04:24:06.442Z,21.40
2022-12-20T04:26:46.838Z,28.13
2022-12-20T04:29:16.224Z,20.95
2022-12-20T04:31:45.005Z,22.27
2022-12-20T04:34:13.142Z,16.48
2022-12-20T04:36:40.890Z,25.40
2022-12-20T04:39:14.694Z,16.70
2022-12-20T04:41:59.624Z,20.35
2022-12-20T04:44:27.169Z,18.90
2022-12-20T04:46:54.621Z,19.88
2022-12-20T04:49:22.226Z,18.90
2022-12-20T04:51:49.909Z,19.42
2022-12-20T04:54:19.422Z,20.40
2022-12-20T04:56:57.490Z,17.45
2022-12-20T04:59:25.585Z,27.65
2022-12-20T05:01:55.537Z,19.42
2022-12-20T05:04:42.483Z,24.30
2022-12-20T05:07:10.240Z,28.98
2022-12-20T05:09:39.884Z,35.78
2022-12-20T05:12:07.520Z,23.73
2022-12-20T05:14:35.187Z,20.77
2022-12-20T05:17:03.145Z,25.58
2022-12-20T05:19:31.024Z,26.63
2022-12-20T05:22:17.219Z,28.75
2022-12-20T05:25:18.275Z,23.33
2022-12-20T05:27:46.110Z,23.13
2022-12-20T05:30:13.833Z,25.63
2022-12-20T05:32:41.808Z,21.15
2022-12-20T05:35:09.937Z,19.08
2022-12-20T05:37:38.527Z,18.70
2022-12-20T05:40:16.263Z,21.85
2022-12-20T05:42:44.692Z,22.17
2022-12-20T05:45:12.361Z,24.08
2022-12-20T05:47:49.488Z,23.38
2022-12-20T05:50:19.145Z,18.33
2022-12-20T05:53:11.266Z,20.70
2022-12-20T05:55:47.335Z,18.45
2022-12-20T06:00:52.909Z,18.13
2022-12-20T06:03:22.855Z,19.35
2022-12-20T06:05:51.944Z,12.15
2022-12-20T06:08:27.219Z,18.02
2022-12-20T06:10:56.670Z,14.43
2022-12-20T06:13:24.984Z,14.85
2022-12-20T06:15:55.165Z,21.73
2022-12-20T06:18:23.345Z,21.23
2022-12-20T06:20:55.499Z,13.80
2022-12-20T06:23:24.685Z,15.10
2022-12-20T06:26:09.540Z,18.15
2022-12-20T06:28:46.129Z,20.70
2022-12-20T06:31:14.824Z,17.40
2022-12-20T06:33:45.316Z,17.67
2022-12-20T06:36:16.008Z,22.63
2022-12-20T06:38:44.158Z,19.08
2022-12-20T06:41:11.695Z,21.58
2022-12-20T06:43:40.250Z,23.63
2022-12-20T06:46:09.013Z,17.58
2022-12-20T06:48:37.669Z,24.60
2022-12-20T06:51:07.315Z,19.80
2022-12-20T06:53:35.318Z,22.10
2022-12-20T06:56:03.410Z,25.38
2022-12-20T06:58:32.566Z,19.05
2022-12-20T07:01:00.701Z,20.05
2022-12-20T07:03:28.662Z,17.73
2022-12-20T07:05:56.586Z,24.15
2022-12-20T07:08:25.007Z,14.40
2022-12-20T07:10:52.921Z,22.35
2022-12-20T07:13:20.833Z,17.88
2022-12-20T07:15:48.568Z,15.07
2022-12-20T07:18:16.091Z,16.08
2022-12-20T07:20:43.538Z,23.00
2022-12-20T07:23:11.079Z,23.40
2022-12-20T07:25:38.678Z,18.67
2022-12-20T07:28:06.206Z,20.80
2022-12-20T07:30:33.610Z,18.45
2022-12-20T07:33:01.171Z,10.70
2022-12-20T07:35:28.817Z,4.13
2022-12-20T07:37:56.282Z,3.10
2022-12-20T07:40:24.293Z,1.42
2022-12-20T07:42:52.243Z,3.08
2022-12-20T07:45:19.921Z,3.80
2022-12-20T07:47:47.398Z,0.55
2022-12-20T07:50:14.920Z,6.25
2022-12-20T07:52:44.736Z,0.20
2022-12-20T07:55:13.472Z,2.47
2022-12-20T07:57:49.085Z,0.95
2022-12-20T08:00:18.752Z,1.00
2022-12-20T08:02:56.720Z,2.13
2022-12-20T08:05:24.582Z,0.30
2022-12-20T08:07:58.718Z,0.70
2022-12-20T08:10:28.525Z,3.25
2022-12-20T08:12:57.882Z,2.92
2022-12-20T08:15:25.957Z,1.52
2022-12-20T08:17:53.520Z,0.60
2022-12-20T08:20:21.111Z,0.88
2022-12-20T08:22:48.752Z,1.08
2022-12-20T08:25:16.628Z,2.35
2022-12-20T08:27:44.723Z,0.65
2022-12-20T08:30:12.575Z,0.63
2022-12-20T08:32:40.059Z,1.23
2022-12-20T08:35:08.327Z,0.80
2022-12-20T08:37:35.819Z,0.68
2022-12-20T08:40:03.555Z,0.73
2022-12-20T08:42:32.132Z,2.33
2022-12-20T08:44:59.624Z,1.05
2022-12-20T08:47:29.131Z,1.75
2022-12-20T08:49:56.764Z,1.25
2022-12-20T08:52:24.273Z,0.80
2022-12-20T08:54:51.746Z,0.57
2022-12-20T08:57:19.269Z,1.45
2022-12-20T08:59:47.083Z,5.10
2022-12-20T09:02:14.652Z,2.25
2022-12-20T09:04:42.421Z,2.72
2022-12-20T09:07:10.584Z,2.97
2022-12-20T09:09:38.134Z,2.95
2022-12-20T09:12:05.704Z,1.98
2022-12-20T09:14:33.405Z,7.63
2022-12-20T09:17:00.878Z,6.15
2022-12-20T09:19:28.751Z,5.05
2022-12-20T09:21:56.609Z,6.63
2022-12-20T09:24:24.092Z,4.78
2022-12-20T09:26:52.069Z,13.30
2022-12-20T09:29:26.997Z,3.78
2022-12-20T09:31:54.713Z,7.30
2022-12-20T09:34:22.202Z,6.53
2022-12-20T09:36:49.875Z,5.50
2022-12-20T09:39:17.489Z,8.32
2022-12-20T09:41:45.211Z,12.23
2022-12-20T09:44:15.790Z,9.63
2022-12-20T09:46:44.557Z,7.50
2022-12-20T09:49:17.191Z,7.10
2022-12-20T09:52:03.345Z,7.97
2022-12-20T09:54:40.129Z,8.18
2022-12-20T09:57:07.571Z,7.43
2022-12-20T09:59:41.311Z,8.45
2022-12-20T10:02:44.488Z,6.18
2022-12-20T10:05:01.229Z,10.00
2022-12-20T10:07:42.013Z,5.65
2022-12-20T10:10:18.512Z,6.80
2022-12-20T10:13:19.017Z,12.60
2022-12-20T10:16:15.386Z,5.47
2022-12-20T10:18:56.642Z,6.57
2022-12-20T10:21:36.052Z,8.45
2022-12-20T10:24:12.166Z,6.97
2022-12-20T10:26:40.197Z,7.63
2022-12-20T10:29:09.040Z,12.68
2022-12-20T10:31:36.748Z,6.68
2022-12-20T10:34:04.347Z,8.90
2022-12-20T10:36:35.621Z,11.23
2022-12-20T10:39:09.551Z,8.65
2022-12-20T10:41:40.236Z,10.77
2022-12-20T10:44:19.423Z,8.80
2022-12-20T10:46:54.043Z,10.70
2022-12-20T10:49:37.148Z,8.05
2022-12-20T10:52:07.777Z,9.90
2022-12-20T10:54:39.124Z,5.35
2022-12-20T10:57:28.617Z,9.95
2022-12-20T10:59:58.880Z,14.27
2022-12-20T11:02:41.656Z,11.35
2022-12-20T11:05:15.460Z,12.00
2022-12-20T11:10:48.649Z,13.52
2022-12-20T11:13:23.105Z,15.73
2022-12-20T11:15:57.281Z,13.85
2022-12-20T11:18:49.491Z,16.25
2022-12-20T11:21:33.255Z,13.20
2022-12-20T11:24:45.559Z,18.25
2022-12-20T11:27:42.852Z,12.80
2022-12-20T11:30:21.544Z,14.10
2022-12-20T11:33:07.811Z,12.30
2022-12-20T11:35:42.035Z,14.93
2022-12-20T11:38:39.921Z,9.82
2022-12-20T11:41:19.999Z,18.23
2022-12-20T11:44:26.549Z,20.08
2022-12-20T11:46:57.689Z,19.67
2022-12-20T11:49:28.470Z,12.88
2022-12-20T11:52:19.132Z,12.57
2022-12-20T11:54:52.919Z,15.70
2022-12-20T11:57:27.801Z,13.13
2022-12-20T12:00:00.376Z,12.20
2022-12-20T12:02:36.406Z,18.10
2022-12-20T12:05:31.790Z,14.32
2022-12-20T12:08:05.726Z,17.42
2022-12-20T12:10:39.039Z,14.57
2022-12-20T12:13:17.315Z,16.15
2022-12-20T12:16:13.236Z,17.25
2022-12-20T12:18:42.156Z,16.40
2022-12-20T12:21:33.179Z,10.77
2022-12-20T12:26:34.820Z,21.27
2022-12-20T12:29:12.542Z,18.55
2022-12-20T12:31:55.316Z,12.88
2022-12-20T12:34:23.060Z,21.38
2022-12-20T12:36:59.684Z,17.35
2022-12-20T12:39:27.441Z,18.17
2022-12-20T12:42:22.926Z,27.73
2022-12-20T12:45:08.345Z,20.13
2022-12-20T12:48:01.164Z,25.95
2022-12-20T12:50:37.327Z,13.90
2022-12-20T12:53:08.964Z,16.33
2022-12-20T12:56:12.678Z,15.20
2022-12-20T12:59:09.552Z,21.25
2022-12-20T13:01:54.112Z,23.58
2022-12-20T13:04:27.383Z,16.13
2022-12-20T13:07:23.377Z,21.05
2022-12-20T13:09:51.141Z,13.00
2022-12-20T13:12:36.949Z,17.05
2022-12-20T13:15:20.361Z,13.98
2022-12-20T13:18:00.808Z,16.38
2022-12-20T13:20:36.090Z,15.32
2022-12-20T13:23:12.674Z,16.30
2022-12-20T13:25:54.473Z,14.50
2022-12-20T13:28:22.713Z,19.27
2022-12-20T13:31:03.684Z,15.82
2022-12-20T13:33:49.355Z,15.45
2022-12-20T13:36:17.871Z,19.73
2022-12-20T13:38:50.505Z,12.18
2022-12-20T13:41:35.365Z,15.55
2022-12-20T13:44:18.078Z,15.32
2022-12-20T13:47:03.517Z,19.55
2022-12-20T13:49:40.295Z,19.70
2022-12-20T13:52:19.653Z,19.88
2022-12-20T13:54:50.140Z,14.95
2022-12-20T13:57:24.472Z,15.63
2022-12-20T13:59:59.977Z,18.92
2022-12-20T14:02:37.024Z,12.25
2022-12-20T14:05:17.096Z,19.30
2022-12-20T14:07:57.003Z,17.48
2022-12-20T14:10:26.422Z,18.60
2022-12-20T14:12:55.405Z,23.95
2022-12-20T14:15:33.419Z,17.90
2022-12-20T14:18:20.360Z,14.65
2022-12-20T14:20:51.388Z,18.23
2022-12-20T14:23:24.818Z,22.95
2022-12-20T14:25:56.952Z,23.23
2022-12-20T14:28:44.467Z,21.05
2022-12-20T14:31:36.935Z,21.83
2022-12-20T14:34:16.949Z,23.80
2022-12-20T14:36:47.423Z,25.20
2022-12-20T14:39:33.603Z,23.75
2022-12-20T14:42:03.617Z,21.45
2022-12-20T14:44:32.564Z,25.13
2022-12-20T14:47:24.993Z,22.92
2022-12-20T14:49:58.885Z,18.60
2022-12-20T14:52:26.479Z,27.83
2022-12-20T14:55:12.732Z,24.33
2022-12-20T14:57:44.882Z,29.45
2022-12-20T15:00:23.639Z,26.65
2022-12-20T15:03:02.667Z,21.20
2022-12-20T15:05:38.474Z,18.75
2022-12-20T15:08:29.684Z,24.55
2022-12-20T15:11:11.161Z,29.75
2022-12-20T15:13:42.475Z,25.08
2022-12-20T15:16:22.723Z,18.15
2022-12-20T15:18:55.053Z,25.33
2022-12-20T15:21:35.612Z,25.85
2022-12-20T15:24:09.415Z,20.83
2022-12-20T15:26:37.931Z,21.27
2022-12-20T15:29:06.578Z,22.98
2022-12-20T15:31:36.322Z,30.48
2022-12-20T15:34:12.059Z,28.98
2022-12-20T15:36:39.726Z,28.15
2022-12-20T15:39:15.274Z,22.23
2022-12-20T15:41:48.793Z,21.67
2022-12-20T15:44:25.072Z,29.77
2022-12-20T15:46:53.443Z,27.67
2022-12-20T15:49:27.638Z,25.80
2022-12-20T15:51:56.158Z,30.85
2022-12-20T15:54:27.556Z,26.60
2022-12-20T15:56:57.381Z,24.30
2022-12-20T15:59:58.486Z,23.65
2022-12-20T16:02:28.406Z,28.70
2022-12-20T16:04:59.055Z,22.33
2022-12-20T16:07:26.895Z,27.85
2022-12-20T16:09:54.430Z,28.38
2022-12-20T16:12:27.136Z,21.63
2022-12-20T16:14:55.463Z,18.90
2022-12-20T16:17:24.044Z,21.33
2022-12-20T16:19:52.115Z,19.48
2022-12-20T16:22:26.339Z,22.10
2022-12-20T16:24:54.271Z,24.60
2022-12-20T16:27:21.895Z,20.05
2022-12-20T16:29:50.117Z,29.35
2022-12-20T16:32:19.932Z,26.92
2022-12-20T16:34:49.947Z,28.45
2022-12-20T16:37:17.598Z,27.73
2022-12-20T16:39:45.306Z,21.15
2022-12-20T16:42:15.696Z,25.70
2022-12-20T16:44:45.716Z,20.63
2022-12-20T16:49:51.564Z,23.23
2022-12-20T16:52:22.142Z,24.65
2022-12-20T16:54:50.522Z,26.45
2022-12-20T16:57:18.221Z,29.60
2022-12-20T16:59:45.681Z,31.80
2022-12-20T17:02:21.365Z,25.00
2022-12-20T17:04:49.075Z,28.63
2022-12-20T17:07:16.989Z,30.70
2022-12-20T17:09:44.531Z,34.38
2022-12-20T17:12:17.285Z,25.90
2022-12-20T17:14:45.102Z,29.00
2022-12-20T17:17:13.365Z,32.65
2022-12-20T17:19:41.496Z,32.35
2022-12-20T17:22:24.373Z,29.77
2022-12-20T17:24:52.182Z,30.08
2022-12-20T17:27:20.215Z,35.22
2022-12-20T17:29:47.717Z,33.63
2022-12-20T17:32:24.167Z,31.80
2022-12-20T17:34:51.953Z,26.83
2022-12-20T17:37:20.858Z,24.13
2022-12-20T17:39:48.547Z,31.23
2022-12-20T17:42:17.081Z,29.15
2022-12-20T17:44:46.284Z,29.90
2022-12-20T17:47:14.269Z,31.98
2022-12-20T17:49:41.688Z,25.02
2022-12-20T17:52:16.567Z,29.05
2022-12-20T17:54:43.996Z,21.80
2022-12-20T17:57:14.852Z,26.77
2022-12-20T17:59:42.660Z,27.13
2022-12-20T18:02:24.636Z,28.20
2022-12-20T18:04:52.663Z,29.23
2022-12-20T18:07:20.529Z,30.88
2022-12-20T18:09:48.700Z,30.20
2022-12-20T18:12:17.625Z,29.58
2022-12-20T18:14:45.242Z,19.90
2022-12-20T18:17:13.072Z,28.75
2022-12-20T18:19:40.974Z,33.45
2022-12-20T18:22:08.412Z,26.33
2022-12-20T18:24:35.978Z,27.52
2022-12-20T18:27:03.551Z,37.05
2022-12-20T18:29:31.359Z,33.80
2022-12-20T18:31:58.919Z,29.48
2022-12-20T18:34:26.889Z,30.52
2022-12-20T18:36:54.526Z,29.25
2022-12-20T18:39:22.382Z,37.00
2022-12-20T18:41:50.468Z,32.35
2022-12-20T18:44:18.172Z,35.90
2022-12-20T18:46:45.983Z,46.20
2022-12-20T18:49:13.791Z,30.73
2022-12-20T18:51:41.659Z,48.63
2022-12-20T18:54:12.178Z,41.45
2022-12-20T18:56:40.662Z,22.17
2022-12-20T18:59:11.831Z,33.33
2022-12-20T19:01:41.817Z,31.63
2022-12-20T19:04:10.551Z,33.97
2022-12-20T19:06:38.779Z,24.33
2022-12-20T19:09:10.724Z,41.50
2022-12-20T19:11:38.753Z,40.28
2022-12-20T19:14:07.786Z,34.08
2022-12-20T19:16:36.456Z,32.97
2022-12-20T19:19:04.274Z,31.20
2022-12-20T19:21:34.024Z,31.38
2022-12-20T19:24:05.290Z,36.50
2022-12-20T19:26:34.156Z,30.45
2022-12-20T19:29:03.264Z,37.05
2022-12-20T19:31:32.953Z,33.08
2022-12-20T19:34:04.246Z,32.65
2022-12-20T19:36:36.771Z,28.83
2022-12-20T19:39:07.790Z,27.42
2022-12-20T19:41:36.224Z,38.33
2022-12-20T19:44:04.692Z,41.00
2022-12-20T19:46:32.370Z,34.13
2022-12-20T19:49:00.420Z,41.85
2022-12-20T19:51:29.084Z,56.97
2022-12-20T19:53:58.680Z,37.78
2022-12-20T19:56:29.188Z,28.38
2022-12-20T19:58:57.249Z,30.30
2022-12-20T20:01:27.452Z,45.80
2022-12-20T20:03:57.612Z,33.50
2022-12-20T20:06:26.495Z,43.63
2022-12-20T20:08:57.587Z,42.50
2022-12-20T20:11:26.650Z,34.70
2022-12-20T20:13:54.414Z,41.72
2022-12-20T20:16:23.085Z,34.38
2022-12-20T20:18:51.523Z,43.00
2022-12-20T20:21:22.600Z,33.60
2022-12-20T20:23:52.797Z,41.95
2022-12-20T20:26:23.765Z,30.70
2022-12-20T20:28:52.171Z,35.22
2022-12-20T20:31:20.874Z,42.25
2022-12-20T20:33:49.438Z,29.95
2022-12-20T20:36:19.518Z,46.70
2022-12-20T20:38:48.334Z,37.57
2022-12-20T20:41:16.512Z,32.80
2022-12-20T20:43:44.708Z,33.95
2022-12-20T20:46:14.160Z,35.28
2022-12-20T20:48:42.087Z,28.52
2022-12-20T20:51:10.003Z,39.15
2022-12-20T20:53:37.630Z,35.97
2022-12-20T20:56:06.792Z,33.47
2022-12-20T20:58:34.797Z,32.00
2022-12-20T21:01:04.758Z,42.08
2022-12-20T21:03:32.996Z,24.15
2022-12-20T21:06:37.221Z,33.17
2022-12-20T21:08:48.459Z,32.10
2022-12-20T21:11:16.137Z,41.08
2022-12-20T21:13:43.699Z,26.52
2022-12-20T21:16:13.687Z,32.42
2022-12-20T21:18:41.229Z,30.37
2022-12-20T21:21:10.644Z,36.45
2022-12-20T21:23:39.499Z,35.45
2022-12-20T21:26:07.759Z,37.95
2022-12-20T21:28:35.953Z,32.08
2022-12-20T21:31:06.460Z,32.47
2022-12-20T21:33:33.991Z,37.75
2022-12-20T21:36:03.307Z,34.15
2022-12-20T21:38:30.810Z,30.35
2022-12-20T21:41:06.272Z,33.63
2022-12-20T21:43:34.332Z,37.35
2022-12-20T21:46:01.862Z,40.53
2022-12-20T21:48:30.241Z,36.95
2022-12-20T21:51:05.003Z,35.20
2022-12-20T21:53:33.498Z,44.00
2022-12-20T21:56:01.906Z,35.03
2022-12-20T21:58:31.010Z,43.35
2022-12-20T22:00:58.903Z,52.00
2022-12-20T22:03:26.732Z,40.55
2022-12-20T22:05:58.096Z,37.28
2022-12-20T22:08:27.468Z,44.28
2022-12-20T22:11:09.838Z,37.13
2022-12-20T22:13:41.589Z,40.88
2022-12-20T22:16:12.727Z,33.05
2022-12-20T22:18:41.578Z,42.38
2022-12-20T22:21:11.485Z,30.60
2022-12-20T22:23:40.268Z,30.70
2022-12-20T22:26:10.789Z,29.77
2022-12-20T22:28:38.986Z,45.25
2022-12-20T22:31:08.718Z,41.83
2022-12-20T22:33:37.164Z,30.00
2022-12-20T22:36:06.093Z,22.52
2022-12-20T22:38:34.908Z,31.38
2022-12-20T22:41:11.134Z,38.83
2022-12-20T22:43:39.284Z,34.83
2022-12-20T22:48:52.543Z,32.22
2022-12-20T22:51:22.298Z,33.85
2022-12-20T22:53:49.945Z,35.15
2022-12-20T22:56:19.491Z,27.90
2022-12-20T22:58:47.254Z,38.38
2022-12-20T23:01:17.513Z,32.53
2022-12-20T23:03:45.943Z,29.20
2022-12-20T23:06:16.636Z,29.77
2022-12-20T23:08:44.538Z,28.45
2022-12-20T23:11:34.189Z,29.33
2022-12-20T23:14:20.439Z,30.40
2022-12-20T23:16:48.050Z,26.70
2022-12-20T23:19:15.539Z,27.20
2022-12-20T23:22:01.807Z,32.15
2022-12-20T23:24:29.367Z,41.13
2022-12-20T23:26:57.693Z,25.98
2022-12-20T23:29:25.119Z,35.15
2022-12-20T23:31:52.866Z,22.67
2022-12-20T23:34:20.718Z,25.42
2022-12-20T23:36:48.297Z,33.58
2022-12-20T23:39:15.739Z,25.00
2022-12-20T23:41:43.161Z,27.35
2022-12-20T23:44:10.801Z,29.95
2022-12-20T23:46:38.458Z,26.05
2022-12-20T23:49:06.059Z,26.90
2022-12-20T23:51:34.529Z,27.90
2022-12-20T23:54:02.054Z,34.10
2022-12-20T23:56:29.464Z,26.15
2022-12-20T23:58:57.728Z,22.88
